createdAt,value
2018-05-02T00:00:32.403Z,4.77
2018-05-02T00:03:00.723Z,5.07
2018-05-02T00:05:28.323Z,6.33
2018-05-02T00:07:55.968Z,7.70
2018-05-02T00:10:23.579Z,4.50
2018-05-02T00:12:51.240Z,8.27
2018-05-02T00:15:19.043Z,4.63
2018-05-02T00:17:46.895Z,4.93
2018-05-02T00:20:15.319Z,4.93
2018-05-02T00:22:42.935Z,4.85
2018-05-02T00:25:10.586Z,5.00
2018-05-02T00:27:38.247Z,6.25
2018-05-02T00:30:05.889Z,4.90
2018-05-02T00:32:33.547Z,7.22
2018-05-02T00:35:01.159Z,4.13
2018-05-02T00:37:28.818Z,6.75
2018-05-02T00:39:56.459Z,5.47
2018-05-02T00:42:24.376Z,8.52
2018-05-02T00:44:51.978Z,4.13
2018-05-02T00:47:19.580Z,7.67
2018-05-02T00:49:47.224Z,4.70
2018-05-02T00:52:15.645Z,7.33
2018-05-02T00:54:43.255Z,5.80
2018-05-02T00:57:10.900Z,5.35
2018-05-02T00:59:38.511Z,9.07
2018-05-02T01:02:06.167Z,8.32
2018-05-02T01:04:33.776Z,6.10
2018-05-02T01:07:01.403Z,8.32
2018-05-02T01:09:29.221Z,5.33
2018-05-02T01:11:56.880Z,4.70
2018-05-02T01:14:24.843Z,9.60
2018-05-02T01:16:52.484Z,4.70
2018-05-02T01:19:20.133Z,4.63
2018-05-02T01:21:47.959Z,6.82
2018-05-02T01:24:16.271Z,5.37
2018-05-02T01:26:44.161Z,5.00
2018-05-02T01:29:11.816Z,5.10
2018-05-02T01:31:39.779Z,9.35
2018-05-02T01:34:07.392Z,5.80
2018-05-02T01:36:35.036Z,8.07
2018-05-02T01:39:03.469Z,7.57
2018-05-02T01:41:31.119Z,6.65
2018-05-02T01:43:58.808Z,6.30
2018-05-02T01:46:26.416Z,4.47
2018-05-02T01:49:06.507Z,6.47
2018-05-02T01:51:34.110Z,5.00
2018-05-02T01:54:02.483Z,6.95
2018-05-02T01:56:30.893Z,7.57
2018-05-02T01:58:58.618Z,6.07
2018-05-02T02:01:26.227Z,4.95
2018-05-02T02:03:53.838Z,7.33
2018-05-02T02:06:21.572Z,4.78
2018-05-02T02:08:49.172Z,5.20
2018-05-02T02:11:16.812Z,5.25
2018-05-02T02:13:44.475Z,5.03
2018-05-02T02:16:12.088Z,6.25
2018-05-02T02:18:39.728Z,5.23
2018-05-02T02:21:07.372Z,4.95
2018-05-02T02:23:34.979Z,8.43
2018-05-02T02:26:02.627Z,6.65
2018-05-02T02:28:30.244Z,4.70
2018-05-02T02:30:58.651Z,4.87
2018-05-02T02:33:26.291Z,5.90
2018-05-02T02:35:53.953Z,5.73
2018-05-02T02:38:22.361Z,4.73
2018-05-02T02:40:50.009Z,6.10
2018-05-02T02:43:17.620Z,8.43
2018-05-02T02:45:45.268Z,5.60
2018-05-02T02:48:12.871Z,6.10
2018-05-02T02:50:40.519Z,4.83
2018-05-02T02:53:08.159Z,8.03
2018-05-02T02:55:35.974Z,4.80
2018-05-02T02:58:03.574Z,6.77
2018-05-02T03:00:31.211Z,3.90
2018-05-02T03:02:58.823Z,4.93
2018-05-02T03:05:26.462Z,7.05
2018-05-02T03:07:54.077Z,8.93
2018-05-02T03:10:21.719Z,4.53
2018-05-02T03:12:49.327Z,8.87
2018-05-02T03:15:16.990Z,4.35
2018-05-02T03:17:44.851Z,5.37
2018-05-02T03:20:12.464Z,13.85
2018-05-02T03:22:40.115Z,4.53
2018-05-02T03:25:08.538Z,5.00
2018-05-02T03:27:36.179Z,4.30
2018-05-02T03:30:03.799Z,6.33
2018-05-02T03:32:31.464Z,4.70
2018-05-02T03:34:59.835Z,6.20
2018-05-02T03:37:28.273Z,6.83
2018-05-02T03:39:56.591Z,4.73
2018-05-02T03:42:25.000Z,4.20
2018-05-02T03:44:52.645Z,4.25
2018-05-02T03:47:20.281Z,5.50
2018-05-02T03:49:48.015Z,5.47
2018-05-02T03:52:15.668Z,8.43
2018-05-02T03:54:43.327Z,3.57
2018-05-02T03:57:10.935Z,4.17
2018-05-02T03:59:51.100Z,3.23
2018-05-02T04:05:30.912Z,3.65
2018-05-02T04:07:58.514Z,10.30
2018-05-02T04:10:26.957Z,3.03
2018-05-02T04:12:54.567Z,4.90
2018-05-02T04:15:22.215Z,6.43
2018-05-02T04:17:49.828Z,3.23
2018-05-02T04:20:17.472Z,3.70
2018-05-02T04:22:45.112Z,3.53
2018-05-02T04:25:13.520Z,3.37
2018-05-02T04:27:41.756Z,3.20
2018-05-02T04:30:09.416Z,5.63
2018-05-02T04:32:37.115Z,3.53
2018-05-02T04:35:08.417Z,5.40
2018-05-02T04:37:36.896Z,2.65
2018-05-02T04:40:05.276Z,3.63
2018-05-02T04:42:37.746Z,2.87
2018-05-02T04:45:05.743Z,2.42
2018-05-02T04:47:35.290Z,5.60
2018-05-02T04:50:03.397Z,3.20
2018-05-02T04:52:31.593Z,3.45
2018-05-02T04:54:59.206Z,6.07
2018-05-02T04:57:27.619Z,4.83
2018-05-02T04:59:55.265Z,4.50
2018-05-02T05:02:23.215Z,2.77
2018-05-02T05:04:50.868Z,2.45
2018-05-02T05:07:18.607Z,3.83
2018-05-02T05:09:46.259Z,3.20
2018-05-02T05:12:13.940Z,4.47
2018-05-02T05:14:41.560Z,3.73
2018-05-02T05:17:09.171Z,5.03
2018-05-02T05:19:36.823Z,7.67
2018-05-02T05:22:05.044Z,3.00
2018-05-02T05:24:32.703Z,3.00
2018-05-02T05:27:00.311Z,6.40
2018-05-02T05:29:29.472Z,2.87
2018-05-02T05:31:57.075Z,4.90
2018-05-02T05:34:24.719Z,6.03
2018-05-02T05:36:52.375Z,4.60
2018-05-02T05:39:19.989Z,3.70
2018-05-02T05:41:47.648Z,3.63
2018-05-02T05:44:15.257Z,3.70
2018-05-02T05:46:43.605Z,3.17
2018-05-02T05:49:11.220Z,3.00
2018-05-02T05:51:39.649Z,3.93
2018-05-02T05:54:07.285Z,3.83
2018-05-02T05:56:34.951Z,7.20
2018-05-02T05:59:02.856Z,4.15
2018-05-02T06:01:30.510Z,4.10
2018-05-02T06:03:58.127Z,4.05
2018-05-02T06:06:25.776Z,3.57
2018-05-02T06:08:53.430Z,4.53
2018-05-02T06:11:21.041Z,4.40
2018-05-02T06:13:49.267Z,3.50
2018-05-02T06:16:16.887Z,3.70
2018-05-02T06:18:44.640Z,3.70
2018-05-02T06:21:12.240Z,2.62
2018-05-02T06:23:39.852Z,4.73
2018-05-02T06:26:07.580Z,5.90
2018-05-02T06:28:35.177Z,7.13
2018-05-02T06:31:02.801Z,3.92
2018-05-02T06:33:30.457Z,5.03
2018-05-02T06:35:58.072Z,4.45
2018-05-02T06:38:25.718Z,4.27
2018-05-02T06:40:53.335Z,6.93
2018-05-02T06:43:21.001Z,3.67
2018-05-02T06:45:48.897Z,3.75
2018-05-02T06:48:16.564Z,4.50
2018-05-02T06:50:44.808Z,3.12
2018-05-02T06:53:12.461Z,3.67
2018-05-02T06:55:40.087Z,4.82
2018-05-02T06:58:08.214Z,4.80
2018-05-02T07:00:35.895Z,4.03
2018-05-02T07:03:03.516Z,3.55
2018-05-02T07:05:31.168Z,3.83
2018-05-02T07:07:59.387Z,3.20
2018-05-02T07:10:27.058Z,5.30
2018-05-02T07:12:54.679Z,5.00
2018-05-02T07:15:22.302Z,3.70
2018-05-02T07:17:50.725Z,3.07
2018-05-02T07:20:18.379Z,3.25
2018-05-02T07:22:46.000Z,4.03
2018-05-02T07:25:13.941Z,3.60
2018-05-02T07:27:41.551Z,3.57
2018-05-02T07:30:09.207Z,3.57
2018-05-02T07:32:36.897Z,3.93
2018-05-02T07:35:04.555Z,3.43
2018-05-02T07:37:32.204Z,3.87
2018-05-02T07:39:59.823Z,3.63
2018-05-02T07:42:28.373Z,6.60
2018-05-02T07:44:56.591Z,6.37
2018-05-02T07:47:24.243Z,9.30
2018-05-02T07:49:52.796Z,5.37
2018-05-02T07:52:20.456Z,6.33
2018-05-02T07:54:48.076Z,6.00
2018-05-02T07:57:15.727Z,6.53
2018-05-02T07:59:43.817Z,6.75
2018-05-02T08:02:11.661Z,7.12
2018-05-02T08:04:39.274Z,7.07
2018-05-02T08:07:07.142Z,7.20
2018-05-02T08:09:34.761Z,6.43
2018-05-02T08:12:02.412Z,7.50
2018-05-02T08:14:30.032Z,7.27
2018-05-02T08:16:57.687Z,13.20
2018-05-02T08:19:26.108Z,7.83
2018-05-02T08:21:53.723Z,7.05
2018-05-02T08:24:21.394Z,7.07
2018-05-02T08:26:49.024Z,7.90
2018-05-02T08:29:16.646Z,8.07
2018-05-02T08:31:44.557Z,8.32
2018-05-02T08:34:12.468Z,8.50
2018-05-02T08:36:40.083Z,8.50
2018-05-02T08:39:07.741Z,8.53
2018-05-02T08:41:35.410Z,7.13
2018-05-02T08:44:03.036Z,8.07
2018-05-02T08:46:31.104Z,9.47
2018-05-02T08:48:58.716Z,8.60
2018-05-02T08:51:26.958Z,9.50
2018-05-02T08:53:54.635Z,9.18
2018-05-02T08:56:22.299Z,7.80
2018-05-02T08:58:50.518Z,8.93
2018-05-02T09:01:18.179Z,8.25
2018-05-02T09:03:45.866Z,10.82
2018-05-02T09:06:13.450Z,8.27
2018-05-02T09:08:41.103Z,8.53
2018-05-02T09:11:08.754Z,8.45
2018-05-02T09:16:26.823Z,8.40
2018-05-02T09:18:54.499Z,8.00
2018-05-02T09:21:22.123Z,8.60
2018-05-02T09:23:49.731Z,9.13
2018-05-02T09:26:17.391Z,8.63
2018-05-02T09:28:45.053Z,9.83
2018-05-02T09:31:13.476Z,8.45
2018-05-02T09:33:41.136Z,9.03
2018-05-02T09:36:09.592Z,7.40
2018-05-02T09:38:37.247Z,9.90
2018-05-02T09:41:04.908Z,9.10
2018-05-02T09:43:32.580Z,8.65
2018-05-02T09:46:00.198Z,12.90
2018-05-02T09:48:27.871Z,9.68
2018-05-02T09:50:55.484Z,7.50
2018-05-02T09:53:23.259Z,7.82
2018-05-02T09:55:51.466Z,7.57
2018-05-02T09:58:19.852Z,6.60
2018-05-02T10:00:47.508Z,6.70
2018-05-02T10:03:15.238Z,8.60
2018-05-02T10:05:42.935Z,8.70
2018-05-02T10:08:11.006Z,7.50
2018-05-02T10:10:38.658Z,6.93
2018-05-02T10:13:06.323Z,6.07
2018-05-02T10:15:34.708Z,5.53
2018-05-02T10:18:02.722Z,6.53
2018-05-02T10:20:30.344Z,6.80
2018-05-02T10:22:58.000Z,6.97
2018-05-02T10:25:25.619Z,6.70
2018-05-02T10:27:53.280Z,6.90
2018-05-02T10:30:20.973Z,7.62
2018-05-02T10:32:48.705Z,7.00
2018-05-02T10:35:16.327Z,7.95
2018-05-02T10:37:44.012Z,7.53
2018-05-02T10:40:11.646Z,8.00
2018-05-02T10:42:39.306Z,7.13
2018-05-02T10:45:07.284Z,10.97
2018-05-02T10:47:35.512Z,6.75
2018-05-02T10:50:03.123Z,6.93
2018-05-02T10:52:31.498Z,7.40
2018-05-02T10:54:59.259Z,7.82
2018-05-02T10:57:26.919Z,5.80
2018-05-02T10:59:54.539Z,6.73
2018-05-02T11:02:22.203Z,6.55
2018-05-02T11:04:50.872Z,8.55
2018-05-02T11:07:19.257Z,6.90
2018-05-02T11:09:47.634Z,7.43
2018-05-02T11:12:16.071Z,6.50
2018-05-02T11:14:43.756Z,6.37
2018-05-02T11:17:12.503Z,7.20
2018-05-02T11:19:40.120Z,7.30
2018-05-02T11:22:08.132Z,7.90
2018-05-02T11:24:35.800Z,8.47
2018-05-02T11:27:03.422Z,8.37
2018-05-02T11:29:31.044Z,9.03
2018-05-02T11:31:58.992Z,8.03
2018-05-02T11:34:26.758Z,8.45
2018-05-02T11:36:54.420Z,8.27
2018-05-02T11:39:22.074Z,8.47
2018-05-02T11:41:49.695Z,6.77
2018-05-02T11:44:19.470Z,6.90
2018-05-02T11:46:47.153Z,6.80
2018-05-02T11:49:14.762Z,7.33
2018-05-02T11:51:42.377Z,7.37
2018-05-02T11:54:10.052Z,7.47
2018-05-02T11:56:37.856Z,7.67
2018-05-02T11:59:05.507Z,8.10
2018-05-02T12:01:33.167Z,7.62
2018-05-02T12:04:00.852Z,7.50
2018-05-02T12:06:29.064Z,6.90
2018-05-02T12:08:56.688Z,7.90
2018-05-02T12:11:25.123Z,7.40
2018-05-02T12:13:52.740Z,8.00
2018-05-02T12:16:20.408Z,7.67
2018-05-02T12:18:48.059Z,7.47
2018-05-02T12:21:16.503Z,7.13
2018-05-02T12:23:44.119Z,6.77
2018-05-02T12:26:11.773Z,6.60
2018-05-02T12:28:39.436Z,5.83
2018-05-02T12:31:07.138Z,6.73
2018-05-02T12:33:34.803Z,6.17
2018-05-02T12:36:02.483Z,5.87
2018-05-02T12:38:30.107Z,7.47
2018-05-02T12:40:57.851Z,6.83
2018-05-02T12:43:25.462Z,7.93
2018-05-02T12:45:53.133Z,8.10
2018-05-02T12:48:22.409Z,7.03
2018-05-02T12:50:50.064Z,8.37
2018-05-02T12:53:17.722Z,11.57
2018-05-02T12:55:45.350Z,12.17
2018-05-02T12:58:13.004Z,9.18
2018-05-02T13:00:40.620Z,7.43
2018-05-02T13:03:08.488Z,7.43
2018-05-02T13:05:36.095Z,6.55
2018-05-02T13:08:03.805Z,6.20
2018-05-02T13:10:31.413Z,5.73
2018-05-02T13:12:59.033Z,6.45
2018-05-02T13:15:26.707Z,7.12
2018-05-02T13:17:54.319Z,6.12
2018-05-02T13:20:21.947Z,6.90
2018-05-02T13:22:49.607Z,7.03
2018-05-02T13:25:17.252Z,7.93
2018-05-02T13:27:45.177Z,6.20
2018-05-02T13:30:13.185Z,5.27
2018-05-02T13:32:41.572Z,6.47
2018-05-02T13:35:09.245Z,6.90
2018-05-02T13:37:36.903Z,6.40
2018-05-02T13:40:04.571Z,6.40
2018-05-02T13:42:32.189Z,5.40
2018-05-02T13:44:59.807Z,5.80
2018-05-02T13:47:27.464Z,5.90
2018-05-02T13:49:55.079Z,7.43
2018-05-02T13:52:22.792Z,7.17
2018-05-02T13:54:50.448Z,6.47
2018-05-02T13:57:18.065Z,5.40
2018-05-02T13:59:45.684Z,7.07
2018-05-02T14:02:13.345Z,5.70
2018-05-02T14:04:41.009Z,5.40
2018-05-02T14:07:08.715Z,7.37
2018-05-02T14:09:36.374Z,5.53
2018-05-02T14:12:03.988Z,4.90
2018-05-02T14:14:31.659Z,5.80
2018-05-02T14:16:59.279Z,5.80
2018-05-02T14:19:26.997Z,5.40
2018-05-02T14:21:55.372Z,7.57
2018-05-02T14:24:23.090Z,6.28
2018-05-02T14:26:50.749Z,5.10
2018-05-02T14:29:18.411Z,8.17
2018-05-02T14:31:46.297Z,5.90
2018-05-02T14:34:14.142Z,5.37
2018-05-02T14:36:41.759Z,5.95
2018-05-02T14:39:09.419Z,6.83
2018-05-02T14:41:37.031Z,5.82
2018-05-02T14:44:04.711Z,5.00
2018-05-02T14:46:32.561Z,8.43
2018-05-02T14:49:00.188Z,5.37
2018-05-02T14:51:27.848Z,4.57
2018-05-02T14:53:55.459Z,4.10
2018-05-02T14:56:23.807Z,4.43
2018-05-02T14:58:51.417Z,3.83
2018-05-02T15:01:19.105Z,3.97
2018-05-02T15:03:46.724Z,3.97
2018-05-02T15:06:14.391Z,6.53
2018-05-02T15:08:42.772Z,5.33
2018-05-02T15:11:11.869Z,5.30
2018-05-02T15:13:39.489Z,4.70
2018-05-02T15:16:07.101Z,5.18
2018-05-02T15:18:34.756Z,4.30
2018-05-02T15:21:02.433Z,4.28
2018-05-02T15:23:30.100Z,4.85
2018-05-02T15:25:57.715Z,5.28
2018-05-02T15:28:26.152Z,4.90
2018-05-02T15:30:53.831Z,4.87
2018-05-02T15:33:21.488Z,4.90
2018-05-02T15:35:49.104Z,5.78
2018-05-02T15:38:16.761Z,5.53
2018-05-02T15:40:44.578Z,4.70
2018-05-02T15:43:12.244Z,4.22
2018-05-02T15:45:39.915Z,4.30
2018-05-02T15:48:07.541Z,4.90
2018-05-02T15:50:35.320Z,5.47
2018-05-02T15:53:02.939Z,5.00
2018-05-02T15:55:30.605Z,5.53
2018-05-02T15:57:58.303Z,5.53
2018-05-02T16:00:25.875Z,5.47
2018-05-02T16:02:54.317Z,4.60
2018-05-02T16:05:21.928Z,6.43
2018-05-02T16:07:50.302Z,5.10
2018-05-02T16:10:18.743Z,5.28
2018-05-02T16:12:46.377Z,6.77
2018-05-02T16:15:14.045Z,6.10
2018-05-02T16:17:41.652Z,6.30
2018-05-02T16:20:09.315Z,7.37
2018-05-02T16:22:36.984Z,6.87
2018-05-02T16:25:04.652Z,6.70
2018-05-02T16:27:33.094Z,6.23
2018-05-02T16:30:00.764Z,6.13
2018-05-02T16:32:28.986Z,6.43
2018-05-02T16:34:56.652Z,8.57
2018-05-02T16:37:24.326Z,5.97
2018-05-02T16:39:51.944Z,6.50
2018-05-02T16:42:19.612Z,6.25
2018-05-02T16:44:47.331Z,6.03
2018-05-02T16:47:15.177Z,6.40
2018-05-02T16:49:42.939Z,6.68
2018-05-02T16:52:10.603Z,5.17
2018-05-02T16:54:38.263Z,8.40
2018-05-02T16:57:05.951Z,6.57
2018-05-02T16:59:33.579Z,5.73
2018-05-02T17:02:01.192Z,7.63
2018-05-02T17:04:29.726Z,6.25
2018-05-02T17:06:58.787Z,6.33
2018-05-02T17:09:26.409Z,6.43
2018-05-02T17:11:54.591Z,6.87
2018-05-02T17:14:22.972Z,6.10
2018-05-02T17:16:51.400Z,7.73
2018-05-02T17:19:19.105Z,13.00
2018-05-02T17:21:47.489Z,6.07
2018-05-02T17:24:15.920Z,7.37
2018-05-02T17:26:43.852Z,5.23
2018-05-02T17:29:11.468Z,6.83
2018-05-02T17:31:39.147Z,6.00
2018-05-02T17:34:07.522Z,6.87
2018-05-02T17:36:35.137Z,6.00
2018-05-02T17:39:02.807Z,6.23
2018-05-02T17:41:30.469Z,5.62
2018-05-02T17:43:58.129Z,7.15
2018-05-02T17:46:25.748Z,6.05
2018-05-02T17:48:53.447Z,5.20
2018-05-02T17:51:21.095Z,6.62
2018-05-02T17:53:48.707Z,8.23
2018-05-02T17:56:17.142Z,8.10
2018-05-02T17:58:44.759Z,5.40
2018-05-02T18:01:12.579Z,5.57
2018-05-02T18:03:40.222Z,5.57
2018-05-02T18:06:08.030Z,5.40
2018-05-02T18:08:36.463Z,5.87
2018-05-02T18:11:04.118Z,9.17
2018-05-02T18:13:31.776Z,6.03
2018-05-02T18:15:59.451Z,6.90
2018-05-02T18:18:27.079Z,8.30
2018-05-02T18:20:54.912Z,7.57
2018-05-02T18:23:23.300Z,5.57
2018-05-02T18:25:50.951Z,6.97
2018-05-02T18:28:18.607Z,5.90
2018-05-02T18:30:46.235Z,5.70
2018-05-02T18:33:14.174Z,6.70
2018-05-02T18:35:41.786Z,6.30
2018-05-02T18:38:09.744Z,6.68
2018-05-02T18:40:38.175Z,7.47
2018-05-02T18:43:05.795Z,6.47
2018-05-02T18:45:33.406Z,6.53
2018-05-02T18:48:01.068Z,6.63
2018-05-02T18:50:30.027Z,6.43
2018-05-02T18:52:57.683Z,5.80
2018-05-02T18:55:25.312Z,9.50
2018-05-02T18:57:53.410Z,6.70
2018-05-02T19:00:21.787Z,6.10
2018-05-02T19:02:50.221Z,7.13
2018-05-02T19:05:17.831Z,7.17
2018-05-02T19:07:45.447Z,11.67
2018-05-02T19:10:14.414Z,7.32
2018-05-02T19:12:42.192Z,7.00
2018-05-02T19:15:10.192Z,8.87
2018-05-02T19:17:44.312Z,6.67
2018-05-02T19:20:19.651Z,7.28
2018-05-02T19:22:48.294Z,6.50
2018-05-02T19:25:21.457Z,11.65
2018-05-02T19:27:49.270Z,6.12
2018-05-02T19:30:16.966Z,8.30
2018-05-02T19:32:50.176Z,5.85
2018-05-02T19:35:17.836Z,6.95
2018-05-02T19:37:45.628Z,6.83
2018-05-02T19:40:18.932Z,6.50
2018-05-02T19:42:52.173Z,9.53
2018-05-02T19:45:19.807Z,8.80
2018-05-02T19:47:47.489Z,5.57
2018-05-02T19:50:15.144Z,5.00
2018-05-02T19:52:46.362Z,5.90
2018-05-02T19:55:15.008Z,6.20
2018-05-02T19:57:42.764Z,5.97
2018-05-02T20:00:16.784Z,6.40
2018-05-02T20:02:50.091Z,6.53
2018-05-02T20:05:17.751Z,6.80
2018-05-02T20:07:45.416Z,6.95
2018-05-02T20:10:18.801Z,6.77
2018-05-02T20:12:52.887Z,7.60
2018-05-02T20:15:20.543Z,9.80
2018-05-02T20:17:48.163Z,7.40
2018-05-02T20:20:15.832Z,7.90
2018-05-02T20:22:43.452Z,8.00
2018-05-02T20:25:11.128Z,7.60
2018-05-02T20:27:38.900Z,7.83
2018-05-02T20:30:06.737Z,9.00
2018-05-02T20:32:35.636Z,7.60
2018-05-02T20:35:03.642Z,14.70
2018-05-02T20:37:31.475Z,10.27
2018-05-02T20:39:59.155Z,8.48
2018-05-02T20:42:26.837Z,8.50
2018-05-02T20:44:54.456Z,8.90
2018-05-02T20:47:22.122Z,8.93
2018-05-02T20:49:49.739Z,8.27
2018-05-02T20:52:17.422Z,9.50
2018-05-02T20:54:45.071Z,9.40
2018-05-02T20:57:12.747Z,7.80
2018-05-02T20:59:40.431Z,10.00
2018-05-02T21:02:08.179Z,9.10
2018-05-02T21:04:35.835Z,9.00
2018-05-02T21:07:03.793Z,9.23
2018-05-02T21:09:31.775Z,8.68
2018-05-02T21:11:59.420Z,8.23
2018-05-02T21:14:27.117Z,9.10
2018-05-02T21:16:55.559Z,9.13
2018-05-02T21:19:23.218Z,8.32
2018-05-02T21:21:50.831Z,9.13
2018-05-02T21:24:18.472Z,7.72
2018-05-02T21:26:46.127Z,8.07
2018-05-02T21:29:13.775Z,10.75
2018-05-02T21:31:41.640Z,7.63
2018-05-02T21:34:09.296Z,8.90
2018-05-02T21:36:36.900Z,9.10
2018-05-02T21:39:06.147Z,10.87
2018-05-02T21:41:33.815Z,7.67
2018-05-02T21:44:01.464Z,8.30
2018-05-02T21:46:29.128Z,9.30
2018-05-02T21:48:56.740Z,9.83
2018-05-02T21:51:24.354Z,8.77
2018-05-02T21:53:52.007Z,8.00
2018-05-02T21:56:19.663Z,8.30
2018-05-02T21:58:47.332Z,9.03
2018-05-02T22:01:14.942Z,9.40
2018-05-02T22:03:42.546Z,8.67
2018-05-02T22:06:10.205Z,8.40
2018-05-02T22:08:38.083Z,10.10
2018-05-02T22:11:05.742Z,8.90
2018-05-02T22:13:33.364Z,8.07
2018-05-02T22:16:00.971Z,8.20
2018-05-02T22:18:28.627Z,8.73
2018-05-02T22:20:56.987Z,8.57
2018-05-02T22:23:24.644Z,12.60
2018-05-02T22:25:52.915Z,8.30
2018-05-02T22:28:21.253Z,9.07
2018-05-02T22:30:48.863Z,8.50
2018-05-02T22:33:16.516Z,10.43
2018-05-02T22:35:44.119Z,9.80
2018-05-02T22:38:12.023Z,10.78
2018-05-02T22:40:39.677Z,10.03
2018-05-02T22:43:07.286Z,9.05
2018-05-02T22:45:35.128Z,10.63
2018-05-02T22:48:03.352Z,9.80
2018-05-02T22:50:30.956Z,10.27
2018-05-02T22:52:58.616Z,8.70
2018-05-02T22:55:26.223Z,9.80
2018-05-02T22:57:53.879Z,9.40
2018-05-02T23:00:22.254Z,11.80
2018-05-02T23:02:49.996Z,8.53
2018-05-02T23:05:17.598Z,9.30
2018-05-02T23:07:45.297Z,9.90
2018-05-02T23:10:12.919Z,10.40
2018-05-02T23:12:41.731Z,10.73
2018-05-02T23:15:09.973Z,9.43
2018-05-02T23:17:37.619Z,8.90
2018-05-02T23:20:05.243Z,8.93
2018-05-02T23:22:32.897Z,9.50
2018-05-02T23:25:00.555Z,8.82
2018-05-02T23:27:28.163Z,8.80
2018-05-02T23:29:55.815Z,8.13
2018-05-02T23:32:24.187Z,8.20
2018-05-02T23:34:51.860Z,8.33
2018-05-02T23:37:20.531Z,9.33
2018-05-02T23:39:48.922Z,13.30
2018-05-02T23:42:17.350Z,9.37
2018-05-02T23:44:45.036Z,9.57
2018-05-02T23:47:12.656Z,10.35
2018-05-02T23:49:40.270Z,8.83
2018-05-02T23:52:07.925Z,10.65
2018-05-02T23:54:35.603Z,10.10
2018-05-02T23:57:03.261Z,9.77
2018-05-02T23:59:31.694Z,10.93
